sensor_id;sensor_type;location;lat;lon;timestamp;temperature;humidity
19636;DHT22;9965;50.774;7.188;2022-08-01T00:01:21;22.80;99.90
19636;DHT22;9965;50.774;7.188;2022-08-01T00:03:47;22.80;99.90
19636;DHT22;9965;50.774;7.188;2022-08-01T00:06:13;22.70;99.90
19636;DHT22;9965;50.774;7.188;2022-08-01T00:08:38;22.60;99.90
19636;DHT22;9965;50.774;7.188;2022-08-01T00:11:04;22.40;99.90
19636;DHT22;9965;50.774;7.188;2022-08-01T00:13:30;22.60;99.90
19636;DHT22;9965;50.774;7.188;2022-08-01T00:15:55;22.50;99.90
19636;DHT22;9965;50.774;7.188;2022-08-01T00:18:21;22.50;99.90
19636;DHT22;9965;50.774;7.188;2022-08-01T00:20:47;22.50;99.90
19636;DHT22;9965;50.774;7.188;2022-08-01T00:23:12;22.50;99.90
19636;DHT22;9965;50.774;7.188;2022-08-01T00:25:38;22.50;99.90
19636;DHT22;9965;50.774;7.188;2022-08-01T00:28:04;22.50;99.90
19636;DHT22;9965;50.774;7.188;2022-08-01T00:30:34;22.40;99.90
19636;DHT22;9965;50.774;7.188;2022-08-01T00:33:00;22.40;99.90
19636;DHT22;9965;50.774;7.188;2022-08-01T00:35:25;22.50;99.90
19636;DHT22;9965;50.774;7.188;2022-08-01T00:37:51;22.40;99.90
19636;DHT22;9965;50.774;7.188;2022-08-01T00:40:17;22.30;99.90
19636;DHT22;9965;50.774;7.188;2022-08-01T00:42:42;22.30;99.90
19636;DHT22;9965;50.774;7.188;2022-08-01T00:45:08;22.40;99.90
19636;DHT22;9965;50.774;7.188;2022-08-01T00:47:34;22.30;99.90
19636;DHT22;9965;50.774;7.188;2022-08-01T00:50:00;22.20;99.90
19636;DHT22;9965;50.774;7.188;2022-08-01T00:52:26;22.20;99.90
19636;DHT22;9965;50.774;7.188;2022-08-01T00:54:51;22.30;99.90
19636;DHT22;9965;50.774;7.188;2022-08-01T00:57:17;22.30;99.90
19636;DHT22;9965;50.774;7.188;2022-08-01T00:59:43;22.30;99.90
19636;DHT22;9965;50.774;7.188;2022-08-01T01:02:08;22.30;99.90
19636;DHT22;9965;50.774;7.188;2022-08-01T01:04:34;22.30;99.90
19636;DHT22;9965;50.774;7.188;2022-08-01T01:10:21;22.30;99.90
19636;DHT22;9965;50.774;7.188;2022-08-01T01:13:11;22.30;99.90
19636;DHT22;9965;50.774;7.188;2022-08-01T01:15:46;22.20;99.90
19636;DHT22;9965;50.774;7.188;2022-08-01T01:18:49;22.10;99.90
19636;DHT22;9965;50.774;7.188;2022-08-01T01:26:31;22.20;99.90
19636;DHT22;9965;50.774;7.188;2022-08-01T01:29:15;22.20;99.90
19636;DHT22;9965;50.774;7.188;2022-08-01T01:31:46;22.10;99.90
19636;DHT22;9965;50.774;7.188;2022-08-01T01:34:15;21.90;99.90
19636;DHT22;9965;50.774;7.188;2022-08-01T01:36:43;21.90;99.90
19636;DHT22;9965;50.774;7.188;2022-08-01T01:39:09;21.90;99.90
19636;DHT22;9965;50.774;7.188;2022-08-01T01:41:36;22.00;99.90
19636;DHT22;9965;50.774;7.188;2022-08-01T01:44:04;22.00;99.90
19636;DHT22;9965;50.774;7.188;2022-08-01T01:46:31;22.10;99.90
19636;DHT22;9965;50.774;7.188;2022-08-01T01:48:58;22.00;99.90
19636;DHT22;9965;50.774;7.188;2022-08-01T01:51:25;21.90;99.90
19636;DHT22;9965;50.774;7.188;2022-08-01T01:53:53;21.90;99.90
19636;DHT22;9965;50.774;7.188;2022-08-01T01:56:20;21.50;99.90
19636;DHT22;9965;50.774;7.188;2022-08-01T01:58:51;21.40;99.90
19636;DHT22;9965;50.774;7.188;2022-08-01T02:01:18;21.40;99.90
19636;DHT22;9965;50.774;7.188;2022-08-01T02:03:45;21.30;99.90
19636;DHT22;9965;50.774;7.188;2022-08-01T02:06:16;21.30;99.90
19636;DHT22;9965;50.774;7.188;2022-08-01T02:08:42;21.40;99.90
19636;DHT22;9965;50.774;7.188;2022-08-01T02:11:09;21.40;99.90
19636;DHT22;9965;50.774;7.188;2022-08-01T02:13:51;21.50;99.90
19636;DHT22;9965;50.774;7.188;2022-08-01T02:16:19;21.50;99.90
19636;DHT22;9965;50.774;7.188;2022-08-01T02:18:45;21.50;99.90
19636;DHT22;9965;50.774;7.188;2022-08-01T02:21:13;21.60;99.90
19636;DHT22;9965;50.774;7.188;2022-08-01T02:23:42;21.60;99.90
19636;DHT22;9965;50.774;7.188;2022-08-01T02:26:13;21.50;99.90
19636;DHT22;9965;50.774;7.188;2022-08-01T02:29:01;21.60;99.90
19636;DHT22;9965;50.774;7.188;2022-08-01T02:31:32;21.40;99.90
19636;DHT22;9965;50.774;7.188;2022-08-01T02:34:03;21.30;99.90
19636;DHT22;9965;50.774;7.188;2022-08-01T02:36:33;21.40;99.90
19636;DHT22;9965;50.774;7.188;2022-08-01T02:39:01;21.40;99.90
19636;DHT22;9965;50.774;7.188;2022-08-01T02:41:29;21.40;99.90
19636;DHT22;9965;50.774;7.188;2022-08-01T02:44:02;21.20;99.90
19636;DHT22;9965;50.774;7.188;2022-08-01T02:46:37;21.30;99.90
19636;DHT22;9965;50.774;7.188;2022-08-01T02:49:06;21.30;99.90
19636;DHT22;9965;50.774;7.188;2022-08-01T02:51:34;21.20;99.90
19636;DHT22;9965;50.774;7.188;2022-08-01T02:54:01;21.20;99.90
19636;DHT22;9965;50.774;7.188;2022-08-01T02:56:29;21.20;99.90
19636;DHT22;9965;50.774;7.188;2022-08-01T02:59:03;21.20;99.90
19636;DHT22;9965;50.774;7.188;2022-08-01T03:01:30;21.20;99.90
19636;DHT22;9965;50.774;7.188;2022-08-01T03:03:57;21.20;99.90
19636;DHT22;9965;50.774;7.188;2022-08-01T03:06:23;21.20;99.90
19636;DHT22;9965;50.774;7.188;2022-08-01T03:08:51;21.30;99.90
19636;DHT22;9965;50.774;7.188;2022-08-01T03:11:17;21.30;99.90
19636;DHT22;9965;50.774;7.188;2022-08-01T03:13:44;21.30;99.90
19636;DHT22;9965;50.774;7.188;2022-08-01T03:16:13;21.20;99.90
19636;DHT22;9965;50.774;7.188;2022-08-01T03:18:41;21.30;99.90
19636;DHT22;9965;50.774;7.188;2022-08-01T03:21:12;21.30;99.90
19636;DHT22;9965;50.774;7.188;2022-08-01T03:23:40;21.30;99.90
19636;DHT22;9965;50.774;7.188;2022-08-01T03:26:07;21.20;99.90
19636;DHT22;9965;50.774;7.188;2022-08-01T03:28:33;21.30;99.90
19636;DHT22;9965;50.774;7.188;2022-08-01T03:31:02;21.30;99.90
19636;DHT22;9965;50.774;7.188;2022-08-01T03:33:28;21.40;99.90
19636;DHT22;9965;50.774;7.188;2022-08-01T03:35:55;21.30;99.90
19636;DHT22;9965;50.774;7.188;2022-08-01T03:38:25;21.20;99.90
19636;DHT22;9965;50.774;7.188;2022-08-01T03:41:09;21.30;99.90
19636;DHT22;9965;50.774;7.188;2022-08-01T03:44:07;21.30;99.90
19636;DHT22;9965;50.774;7.188;2022-08-01T03:46:42;21.20;99.90
19636;DHT22;9965;50.774;7.188;2022-08-01T03:49:14;21.20;99.90
19636;DHT22;9965;50.774;7.188;2022-08-01T03:51:40;21.30;99.90
19636;DHT22;9965;50.774;7.188;2022-08-01T03:54:07;21.30;99.90
19636;DHT22;9965;50.774;7.188;2022-08-01T03:56:35;21.20;99.90
19636;DHT22;9965;50.774;7.188;2022-08-01T03:59:02;21.30;99.90
19636;DHT22;9965;50.774;7.188;2022-08-01T04:01:31;21.20;99.90
19636;DHT22;9965;50.774;7.188;2022-08-01T04:03:59;21.20;99.90
19636;DHT22;9965;50.774;7.188;2022-08-01T04:06:25;21.10;99.90
19636;DHT22;9965;50.774;7.188;2022-08-01T04:08:50;21.10;99.90
19636;DHT22;9965;50.774;7.188;2022-08-01T04:11:24;21.10;99.90
19636;DHT22;9965;50.774;7.188;2022-08-01T04:13:51;21.10;99.90
19636;DHT22;9965;50.774;7.188;2022-08-01T04:16:18;21.20;99.90
19636;DHT22;9965;50.774;7.188;2022-08-01T04:18:44;21.30;99.90
19636;DHT22;9965;50.774;7.188;2022-08-01T04:21:10;21.30;99.90
19636;DHT22;9965;50.774;7.188;2022-08-01T04:23:38;21.30;99.90
19636;DHT22;9965;50.774;7.188;2022-08-01T04:26:05;21.30;99.90
19636;DHT22;9965;50.774;7.188;2022-08-01T04:28:34;21.20;99.90
19636;DHT22;9965;50.774;7.188;2022-08-01T04:31:01;21.20;99.90
19636;DHT22;9965;50.774;7.188;2022-08-01T04:33:29;21.20;99.90
19636;DHT22;9965;50.774;7.188;2022-08-01T04:35:56;21.20;99.90
19636;DHT22;9965;50.774;7.188;2022-08-01T04:38:25;21.20;99.90
19636;DHT22;9965;50.774;7.188;2022-08-01T04:40:52;21.20;99.90
19636;DHT22;9965;50.774;7.188;2022-08-01T04:43:19;21.20;99.90
19636;DHT22;9965;50.774;7.188;2022-08-01T04:45:46;21.30;99.90
19636;DHT22;9965;50.774;7.188;2022-08-01T04:48:13;21.30;99.90
19636;DHT22;9965;50.774;7.188;2022-08-01T04:50:41;21.30;99.90
19636;DHT22;9965;50.774;7.188;2022-08-01T04:53:16;21.30;99.90
19636;DHT22;9965;50.774;7.188;2022-08-01T04:55:43;21.30;99.90
19636;DHT22;9965;50.774;7.188;2022-08-01T04:58:10;21.30;99.90
19636;DHT22;9965;50.774;7.188;2022-08-01T05:00:36;21.40;99.90
19636;DHT22;9965;50.774;7.188;2022-08-01T05:03:01;21.40;99.90
19636;DHT22;9965;50.774;7.188;2022-08-01T05:05:27;21.50;99.90
19636;DHT22;9965;50.774;7.188;2022-08-01T05:07:53;21.50;99.90
19636;DHT22;9965;50.774;7.188;2022-08-01T05:10:19;21.50;99.90
19636;DHT22;9965;50.774;7.188;2022-08-01T05:12:44;21.30;99.90
19636;DHT22;9965;50.774;7.188;2022-08-01T05:15:11;21.30;99.90
19636;DHT22;9965;50.774;7.188;2022-08-01T05:17:37;21.30;99.90
19636;DHT22;9965;50.774;7.188;2022-08-01T05:20:03;21.40;99.90
19636;DHT22;9965;50.774;7.188;2022-08-01T05:22:29;21.30;99.90
19636;DHT22;9965;50.774;7.188;2022-08-01T05:24:54;21.50;99.90
19636;DHT22;9965;50.774;7.188;2022-08-01T05:27:20;21.50;99.90
19636;DHT22;9965;50.774;7.188;2022-08-01T05:29:46;21.40;99.90
19636;DHT22;9965;50.774;7.188;2022-08-01T05:32:11;21.50;99.90
19636;DHT22;9965;50.774;7.188;2022-08-01T05:34:37;21.50;99.90
19636;DHT22;9965;50.774;7.188;2022-08-01T05:37:03;21.60;99.90
19636;DHT22;9965;50.774;7.188;2022-08-01T05:39:28;21.60;99.90
19636;DHT22;9965;50.774;7.188;2022-08-01T05:41:54;21.60;99.90
19636;DHT22;9965;50.774;7.188;2022-08-01T05:44:20;21.50;99.90
19636;DHT22;9965;50.774;7.188;2022-08-01T05:46:45;21.40;99.90
19636;DHT22;9965;50.774;7.188;2022-08-01T05:49:11;21.50;99.90
19636;DHT22;9965;50.774;7.188;2022-08-01T05:51:37;21.60;99.90
19636;DHT22;9965;50.774;7.188;2022-08-01T05:54:03;21.50;99.90
19636;DHT22;9965;50.774;7.188;2022-08-01T05:56:28;21.50;99.90
19636;DHT22;9965;50.774;7.188;2022-08-01T05:58:54;21.50;99.90
19636;DHT22;9965;50.774;7.188;2022-08-01T06:01:20;21.50;99.90
19636;DHT22;9965;50.774;7.188;2022-08-01T06:03:46;21.50;99.90
19636;DHT22;9965;50.774;7.188;2022-08-01T06:06:12;21.50;99.90
19636;DHT22;9965;50.774;7.188;2022-08-01T06:08:39;21.60;99.90
19636;DHT22;9965;50.774;7.188;2022-08-01T06:11:05;21.70;99.90
19636;DHT22;9965;50.774;7.188;2022-08-01T06:13:31;21.70;99.90
19636;DHT22;9965;50.774;7.188;2022-08-01T06:15:57;21.80;99.90
19636;DHT22;9965;50.774;7.188;2022-08-01T06:18:23;21.70;99.90
19636;DHT22;9965;50.774;7.188;2022-08-01T06:20:48;21.80;99.90
19636;DHT22;9965;50.774;7.188;2022-08-01T06:23:14;21.70;99.90
19636;DHT22;9965;50.774;7.188;2022-08-01T06:25:42;21.70;99.90
19636;DHT22;9965;50.774;7.188;2022-08-01T06:28:07;21.60;99.90
19636;DHT22;9965;50.774;7.188;2022-08-01T06:30:33;21.60;99.90
19636;DHT22;9965;50.774;7.188;2022-08-01T06:32:59;21.80;99.90
19636;DHT22;9965;50.774;7.188;2022-08-01T06:35:27;21.80;99.90
19636;DHT22;9965;50.774;7.188;2022-08-01T06:37:55;22.00;99.90
19636;DHT22;9965;50.774;7.188;2022-08-01T06:40:21;22.00;99.90
19636;DHT22;9965;50.774;7.188;2022-08-01T06:42:47;21.90;99.90
19636;DHT22;9965;50.774;7.188;2022-08-01T06:45:13;22.00;99.90
19636;DHT22;9965;50.774;7.188;2022-08-01T06:47:40;21.90;99.90
19636;DHT22;9965;50.774;7.188;2022-08-01T06:50:07;21.90;99.90
19636;DHT22;9965;50.774;7.188;2022-08-01T06:52:34;21.80;99.90
19636;DHT22;9965;50.774;7.188;2022-08-01T06:55:00;21.60;99.90
19636;DHT22;9965;50.774;7.188;2022-08-01T06:57:26;21.70;99.90
19636;DHT22;9965;50.774;7.188;2022-08-01T06:59:52;21.70;99.90
19636;DHT22;9965;50.774;7.188;2022-08-01T07:02:18;21.80;99.90
19636;DHT22;9965;50.774;7.188;2022-08-01T07:04:44;22.00;99.90
19636;DHT22;9965;50.774;7.188;2022-08-01T07:07:09;22.20;99.90
19636;DHT22;9965;50.774;7.188;2022-08-01T07:09:35;22.40;99.90
19636;DHT22;9965;50.774;7.188;2022-08-01T07:12:00;22.40;99.90
19636;DHT22;9965;50.774;7.188;2022-08-01T07:14:26;22.00;99.90
19636;DHT22;9965;50.774;7.188;2022-08-01T07:16:52;22.00;99.90
19636;DHT22;9965;50.774;7.188;2022-08-01T07:19:18;22.30;99.90
19636;DHT22;9965;50.774;7.188;2022-08-01T07:21:43;22.40;99.90
19636;DHT22;9965;50.774;7.188;2022-08-01T07:24:12;22.60;99.90
19636;DHT22;9965;50.774;7.188;2022-08-01T07:26:42;22.80;99.90
19636;DHT22;9965;50.774;7.188;2022-08-01T07:29:08;22.90;99.90
19636;DHT22;9965;50.774;7.188;2022-08-01T07:31:34;23.10;99.90
19636;DHT22;9965;50.774;7.188;2022-08-01T07:33:59;23.40;99.90
19636;DHT22;9965;50.774;7.188;2022-08-01T07:36:25;23.40;99.90
19636;DHT22;9965;50.774;7.188;2022-08-01T07:38:51;23.30;99.90
19636;DHT22;9965;50.774;7.188;2022-08-01T07:41:16;23.30;99.90
19636;DHT22;9965;50.774;7.188;2022-08-01T07:43:42;23.40;99.90
19636;DHT22;9965;50.774;7.188;2022-08-01T07:46:08;23.40;99.90
19636;DHT22;9965;50.774;7.188;2022-08-01T07:48:33;23.50;99.90
19636;DHT22;9965;50.774;7.188;2022-08-01T07:50:59;23.60;99.90
19636;DHT22;9965;50.774;7.188;2022-08-01T07:53:25;23.50;99.90
19636;DHT22;9965;50.774;7.188;2022-08-01T07:55:51;23.30;99.90
19636;DHT22;9965;50.774;7.188;2022-08-01T07:58:17;23.20;99.90
19636;DHT22;9965;50.774;7.188;2022-08-01T08:00:43;23.20;99.90
19636;DHT22;9965;50.774;7.188;2022-08-01T08:03:09;22.90;99.90
19636;DHT22;9965;50.774;7.188;2022-08-01T08:05:35;23.10;99.90
19636;DHT22;9965;50.774;7.188;2022-08-01T08:08:04;23.20;99.90
19636;DHT22;9965;50.774;7.188;2022-08-01T08:10:30;23.30;99.90
19636;DHT22;9965;50.774;7.188;2022-08-01T08:12:56;23.30;99.90
19636;DHT22;9965;50.774;7.188;2022-08-01T08:15:22;23.20;99.90
19636;DHT22;9965;50.774;7.188;2022-08-01T08:17:48;22.90;99.90
19636;DHT22;9965;50.774;7.188;2022-08-01T08:20:14;22.50;99.90
19636;DHT22;9965;50.774;7.188;2022-08-01T08:22:39;22.30;99.90
19636;DHT22;9965;50.774;7.188;2022-08-01T08:25:06;22.40;99.90
19636;DHT22;9965;50.774;7.188;2022-08-01T08:27:32;22.50;99.90
19636;DHT22;9965;50.774;7.188;2022-08-01T08:29:57;22.60;99.90
19636;DHT22;9965;50.774;7.188;2022-08-01T08:32:23;22.90;99.90
19636;DHT22;9965;50.774;7.188;2022-08-01T08:34:49;22.90;99.90
19636;DHT22;9965;50.774;7.188;2022-08-01T08:37:15;23.10;99.90
19636;DHT22;9965;50.774;7.188;2022-08-01T08:39:40;23.00;99.90
19636;DHT22;9965;50.774;7.188;2022-08-01T08:42:07;23.00;99.90
19636;DHT22;9965;50.774;7.188;2022-08-01T08:44:33;23.00;99.90
19636;DHT22;9965;50.774;7.188;2022-08-01T08:47:01;23.10;99.90
19636;DHT22;9965;50.774;7.188;2022-08-01T08:49:31;23.20;99.90
19636;DHT22;9965;50.774;7.188;2022-08-01T08:51:59;23.00;99.90
19636;DHT22;9965;50.774;7.188;2022-08-01T08:54:25;22.40;99.90
19636;DHT22;9965;50.774;7.188;2022-08-01T08:56:53;22.00;99.90
19636;DHT22;9965;50.774;7.188;2022-08-01T08:59:19;21.80;99.90
19636;DHT22;9965;50.774;7.188;2022-08-01T09:01:45;21.80;99.90
19636;DHT22;9965;50.774;7.188;2022-08-01T09:04:11;21.90;99.90
19636;DHT22;9965;50.774;7.188;2022-08-01T09:06:38;22.10;99.90
19636;DHT22;9965;50.774;7.188;2022-08-01T09:09:05;22.40;99.90
19636;DHT22;9965;50.774;7.188;2022-08-01T09:11:31;22.70;99.90
19636;DHT22;9965;50.774;7.188;2022-08-01T09:16:40;23.10;99.90
19636;DHT22;9965;50.774;7.188;2022-08-01T09:19:18;23.10;99.90
19636;DHT22;9965;50.774;7.188;2022-08-01T09:21:58;23.00;99.90
19636;DHT22;9965;50.774;7.188;2022-08-01T09:24:25;23.00;99.90
19636;DHT22;9965;50.774;7.188;2022-08-01T09:26:51;23.00;99.90
19636;DHT22;9965;50.774;7.188;2022-08-01T09:29:25;23.00;99.90
19636;DHT22;9965;50.774;7.188;2022-08-01T09:31:52;22.90;99.90
19636;DHT22;9965;50.774;7.188;2022-08-01T09:34:26;23.10;99.90
19636;DHT22;9965;50.774;7.188;2022-08-01T09:36:54;23.20;99.90
19636;DHT22;9965;50.774;7.188;2022-08-01T09:39:26;23.50;99.90
19636;DHT22;9965;50.774;7.188;2022-08-01T09:41:54;23.70;99.90
19636;DHT22;9965;50.774;7.188;2022-08-01T09:44:39;23.70;99.90
19636;DHT22;9965;50.774;7.188;2022-08-01T09:47:05;23.80;99.90
19636;DHT22;9965;50.774;7.188;2022-08-01T09:49:36;23.60;99.90
19636;DHT22;9965;50.774;7.188;2022-08-01T09:52:23;23.70;99.90
19636;DHT22;9965;50.774;7.188;2022-08-01T09:55:07;23.80;99.90
19636;DHT22;9965;50.774;7.188;2022-08-01T09:57:33;23.60;99.90
19636;DHT22;9965;50.774;7.188;2022-08-01T10:00:00;23.90;99.90
19636;DHT22;9965;50.774;7.188;2022-08-01T10:02:35;24.00;99.90
19636;DHT22;9965;50.774;7.188;2022-08-01T10:05:06;24.10;99.90
19636;DHT22;9965;50.774;7.188;2022-08-01T10:07:33;24.40;99.90
19636;DHT22;9965;50.774;7.188;2022-08-01T10:10:19;24.60;99.90
19636;DHT22;9965;50.774;7.188;2022-08-01T10:12:45;24.80;99.90
19636;DHT22;9965;50.774;7.188;2022-08-01T10:15:16;24.50;99.90
19636;DHT22;9965;50.774;7.188;2022-08-01T10:17:53;24.80;99.90
19636;DHT22;9965;50.774;7.188;2022-08-01T10:20:21;24.90;99.90
19636;DHT22;9965;50.774;7.188;2022-08-01T10:22:49;25.00;99.90
19636;DHT22;9965;50.774;7.188;2022-08-01T10:25:16;25.30;99.90
19636;DHT22;9965;50.774;7.188;2022-08-01T10:27:44;25.20;99.90
19636;DHT22;9965;50.774;7.188;2022-08-01T10:30:11;25.10;99.90
19636;DHT22;9965;50.774;7.188;2022-08-01T10:32:37;25.10;99.90
19636;DHT22;9965;50.774;7.188;2022-08-01T10:35:06;24.90;99.90
19636;DHT22;9965;50.774;7.188;2022-08-01T10:37:34;24.40;99.90
19636;DHT22;9965;50.774;7.188;2022-08-01T10:40:01;24.20;99.90
19636;DHT22;9965;50.774;7.188;2022-08-01T10:42:26;24.40;99.90
19636;DHT22;9965;50.774;7.188;2022-08-01T10:44:54;24.60;99.90
19636;DHT22;9965;50.774;7.188;2022-08-01T10:47:42;25.10;99.90
19636;DHT22;9965;50.774;7.188;2022-08-01T10:50:24;24.80;99.90
19636;DHT22;9965;50.774;7.188;2022-08-01T10:53:11;24.90;99.90
19636;DHT22;9965;50.774;7.188;2022-08-01T10:58:35;25.50;99.90
19636;DHT22;9965;50.774;7.188;2022-08-01T11:03:42;26.10;99.90
19636;DHT22;9965;50.774;7.188;2022-08-01T11:06:17;25.90;99.90
19636;DHT22;9965;50.774;7.188;2022-08-01T11:08:53;26.10;99.90
19636;DHT22;9965;50.774;7.188;2022-08-01T11:11:20;26.20;99.90
19636;DHT22;9965;50.774;7.188;2022-08-01T11:16:35;26.60;99.90
19636;DHT22;9965;50.774;7.188;2022-08-01T11:19:02;26.30;99.90
19636;DHT22;9965;50.774;7.188;2022-08-01T11:27:26;25.20;99.90
19636;DHT22;9965;50.774;7.188;2022-08-01T11:32:46;25.70;99.90
19636;DHT22;9965;50.774;7.188;2022-08-01T11:35:12;26.10;99.90
19636;DHT22;9965;50.774;7.188;2022-08-01T11:37:38;26.10;99.90
19636;DHT22;9965;50.774;7.188;2022-08-01T11:40:27;26.30;99.90
19636;DHT22;9965;50.774;7.188;2022-08-01T11:43:18;26.40;99.90
19636;DHT22;9965;50.774;7.188;2022-08-01T11:45:54;26.40;99.90
19636;DHT22;9965;50.774;7.188;2022-08-01T11:48:25;26.60;99.90
19636;DHT22;9965;50.774;7.188;2022-08-01T11:50:52;26.40;99.90
19636;DHT22;9965;50.774;7.188;2022-08-01T11:53:19;26.10;99.90
19636;DHT22;9965;50.774;7.188;2022-08-01T11:55:50;26.10;99.90
19636;DHT22;9965;50.774;7.188;2022-08-01T11:58:21;25.90;99.90
19636;DHT22;9965;50.774;7.188;2022-08-01T12:00:51;25.80;99.90
19636;DHT22;9965;50.774;7.188;2022-08-01T12:03:27;25.60;99.90
19636;DHT22;9965;50.774;7.188;2022-08-01T12:05:53;25.50;99.90
19636;DHT22;9965;50.774;7.188;2022-08-01T12:08:45;25.50;99.90
19636;DHT22;9965;50.774;7.188;2022-08-01T12:11:11;25.80;99.90
19636;DHT22;9965;50.774;7.188;2022-08-01T12:13:43;25.90;99.90
19636;DHT22;9965;50.774;7.188;2022-08-01T12:16:10;25.70;99.90
19636;DHT22;9965;50.774;7.188;2022-08-01T12:18:41;25.50;99.90
19636;DHT22;9965;50.774;7.188;2022-08-01T12:21:07;25.70;99.90
19636;DHT22;9965;50.774;7.188;2022-08-01T12:23:33;26.00;99.90
19636;DHT22;9965;50.774;7.188;2022-08-01T12:25:59;26.10;99.90
19636;DHT22;9965;50.774;7.188;2022-08-01T12:28:26;26.30;99.90
19636;DHT22;9965;50.774;7.188;2022-08-01T12:30:52;26.40;99.90
19636;DHT22;9965;50.774;7.188;2022-08-01T12:33:19;26.70;99.90
19636;DHT22;9965;50.774;7.188;2022-08-01T12:35:45;27.00;99.90
19636;DHT22;9965;50.774;7.188;2022-08-01T12:38:16;27.10;99.90
19636;DHT22;9965;50.774;7.188;2022-08-01T12:40:44;27.10;99.90
19636;DHT22;9965;50.774;7.188;2022-08-01T12:43:13;27.00;99.90
19636;DHT22;9965;50.774;7.188;2022-08-01T12:45:42;27.30;99.90
19636;DHT22;9965;50.774;7.188;2022-08-01T12:48:13;27.20;99.90
19636;DHT22;9965;50.774;7.188;2022-08-01T12:50:44;27.30;99.90
19636;DHT22;9965;50.774;7.188;2022-08-01T12:53:10;27.20;99.90
19636;DHT22;9965;50.774;7.188;2022-08-01T12:55:53;27.30;99.90
19636;DHT22;9965;50.774;7.188;2022-08-01T12:58:20;27.30;99.90
19636;DHT22;9965;50.774;7.188;2022-08-01T13:00:49;27.30;99.90
19636;DHT22;9965;50.774;7.188;2022-08-01T13:03:20;27.00;99.90
19636;DHT22;9965;50.774;7.188;2022-08-01T13:05:54;26.80;99.90
19636;DHT22;9965;50.774;7.188;2022-08-01T13:08:22;27.10;99.90
19636;DHT22;9965;50.774;7.188;2022-08-01T13:10:49;26.80;99.90
19636;DHT22;9965;50.774;7.188;2022-08-01T13:13:17;27.40;99.90
19636;DHT22;9965;50.774;7.188;2022-08-01T13:15:43;27.20;99.90
19636;DHT22;9965;50.774;7.188;2022-08-01T13:18:29;27.50;99.90
19636;DHT22;9965;50.774;7.188;2022-08-01T13:21:15;27.90;99.90
19636;DHT22;9965;50.774;7.188;2022-08-01T13:23:42;28.00;99.90
19636;DHT22;9965;50.774;7.188;2022-08-01T13:26:45;28.20;99.90
19636;DHT22;9965;50.774;7.188;2022-08-01T13:29:16;28.20;99.90
19636;DHT22;9965;50.774;7.188;2022-08-01T13:31:42;28.20;99.90
19636;DHT22;9965;50.774;7.188;2022-08-01T13:34:09;28.00;99.90
19636;DHT22;9965;50.774;7.188;2022-08-01T13:36:35;27.30;99.90
19636;DHT22;9965;50.774;7.188;2022-08-01T13:39:01;26.50;99.90
19636;DHT22;9965;50.774;7.188;2022-08-01T13:41:46;26.10;99.90
19636;DHT22;9965;50.774;7.188;2022-08-01T13:44:12;26.10;99.90
19636;DHT22;9965;50.774;7.188;2022-08-01T13:46:38;25.90;99.90
19636;DHT22;9965;50.774;7.188;2022-08-01T13:49:05;25.80;99.90
19636;DHT22;9965;50.774;7.188;2022-08-01T13:51:32;26.00;99.90
19636;DHT22;9965;50.774;7.188;2022-08-01T13:53:57;26.50;99.90
19636;DHT22;9965;50.774;7.188;2022-08-01T13:56:23;26.60;99.90
19636;DHT22;9965;50.774;7.188;2022-08-01T13:58:50;26.50;99.90
19636;DHT22;9965;50.774;7.188;2022-08-01T14:01:16;26.50;99.90
19636;DHT22;9965;50.774;7.188;2022-08-01T14:03:42;26.30;99.90
19636;DHT22;9965;50.774;7.188;2022-08-01T14:06:07;26.50;99.90
19636;DHT22;9965;50.774;7.188;2022-08-01T14:08:33;26.70;99.90
19636;DHT22;9965;50.774;7.188;2022-08-01T14:10:59;26.50;99.90
19636;DHT22;9965;50.774;7.188;2022-08-01T14:13:25;26.60;99.90
19636;DHT22;9965;50.774;7.188;2022-08-01T14:15:51;26.80;99.90
19636;DHT22;9965;50.774;7.188;2022-08-01T14:18:17;26.50;99.90
19636;DHT22;9965;50.774;7.188;2022-08-01T14:20:43;26.60;99.90
19636;DHT22;9965;50.774;7.188;2022-08-01T14:23:09;26.80;99.90
19636;DHT22;9965;50.774;7.188;2022-08-01T14:25:39;26.70;99.90
19636;DHT22;9965;50.774;7.188;2022-08-01T14:28:05;26.80;99.90
19636;DHT22;9965;50.774;7.188;2022-08-01T14:30:32;26.60;99.90
19636;DHT22;9965;50.774;7.188;2022-08-01T14:32:59;26.50;99.90
19636;DHT22;9965;50.774;7.188;2022-08-01T14:35:25;26.20;99.90
19636;DHT22;9965;50.774;7.188;2022-08-01T14:37:51;26.40;99.90
19636;DHT22;9965;50.774;7.188;2022-08-01T14:40:17;26.80;99.90
19636;DHT22;9965;50.774;7.188;2022-08-01T14:42:43;27.20;99.90
19636;DHT22;9965;50.774;7.188;2022-08-01T14:45:11;26.70;99.90
19636;DHT22;9965;50.774;7.188;2022-08-01T14:47:38;26.50;99.90
19636;DHT22;9965;50.774;7.188;2022-08-01T14:50:05;26.70;99.90
19636;DHT22;9965;50.774;7.188;2022-08-01T14:52:33;26.70;99.90
19636;DHT22;9965;50.774;7.188;2022-08-01T14:54:58;26.70;99.90
19636;DHT22;9965;50.774;7.188;2022-08-01T14:57:24;26.60;99.90
19636;DHT22;9965;50.774;7.188;2022-08-01T14:59:50;26.80;99.90
19636;DHT22;9965;50.774;7.188;2022-08-01T15:02:16;26.80;99.90
19636;DHT22;9965;50.774;7.188;2022-08-01T15:04:47;26.80;99.90
19636;DHT22;9965;50.774;7.188;2022-08-01T15:07:14;26.90;99.90
19636;DHT22;9965;50.774;7.188;2022-08-01T15:09:40;27.20;99.90
19636;DHT22;9965;50.774;7.188;2022-08-01T15:12:06;27.40;99.90
19636;DHT22;9965;50.774;7.188;2022-08-01T15:14:31;27.20;99.90
19636;DHT22;9965;50.774;7.188;2022-08-01T15:17:20;27.20;99.90
19636;DHT22;9965;50.774;7.188;2022-08-01T15:19:48;27.60;99.90
19636;DHT22;9965;50.774;7.188;2022-08-01T15:22:15;27.80;99.90
19636;DHT22;9965;50.774;7.188;2022-08-01T15:24:41;27.80;99.90
19636;DHT22;9965;50.774;7.188;2022-08-01T15:27:08;27.70;99.90
19636;DHT22;9965;50.774;7.188;2022-08-01T15:29:33;27.30;99.90
19636;DHT22;9965;50.774;7.188;2022-08-01T15:32:00;27.30;99.90
19636;DHT22;9965;50.774;7.188;2022-08-01T15:34:26;27.50;99.90
19636;DHT22;9965;50.774;7.188;2022-08-01T15:36:52;27.40;99.90
19636;DHT22;9965;50.774;7.188;2022-08-01T15:39:17;27.30;99.90
19636;DHT22;9965;50.774;7.188;2022-08-01T15:41:43;27.50;99.90
19636;DHT22;9965;50.774;7.188;2022-08-01T15:44:09;27.80;99.90
19636;DHT22;9965;50.774;7.188;2022-08-01T15:46:34;27.90;99.90
19636;DHT22;9965;50.774;7.188;2022-08-01T15:49:04;27.70;99.90
19636;DHT22;9965;50.774;7.188;2022-08-01T15:51:31;27.50;99.90
19636;DHT22;9965;50.774;7.188;2022-08-01T15:53:57;27.30;99.90
19636;DHT22;9965;50.774;7.188;2022-08-01T15:56:22;27.30;99.90
19636;DHT22;9965;50.774;7.188;2022-08-01T15:58:49;27.20;99.90
19636;DHT22;9965;50.774;7.188;2022-08-01T16:01:15;27.00;99.90
19636;DHT22;9965;50.774;7.188;2022-08-01T16:03:40;27.00;99.90
19636;DHT22;9965;50.774;7.188;2022-08-01T16:06:06;27.10;99.90
19636;DHT22;9965;50.774;7.188;2022-08-01T16:08:33;26.80;99.90
19636;DHT22;9965;50.774;7.188;2022-08-01T16:10:58;26.80;99.90
19636;DHT22;9965;50.774;7.188;2022-08-01T16:13:24;26.90;99.90
19636;DHT22;9965;50.774;7.188;2022-08-01T16:15:50;26.90;99.90
19636;DHT22;9965;50.774;7.188;2022-08-01T16:18:16;27.10;99.90
19636;DHT22;9965;50.774;7.188;2022-08-01T16:20:42;27.10;99.90